sensor_id;sensor_type;location;lat;lon;timestamp;pressure;altitude;pressure_sealevel;temperature;humidity
44872;BME280;30602;51.060;17.226;2024-01-07T00:00:20;101403.49;;;-2.49;100.00
44872;BME280;30602;51.060;17.226;2024-01-07T00:03:54;101411.19;;;-2.53;100.00
44872;BME280;30602;51.060;17.226;2024-01-07T00:07:16;101410.91;;;-2.46;100.00
44872;BME280;30602;51.060;17.226;2024-01-07T00:10:57;101413.95;;;-2.50;100.00
44872;BME280;30602;51.060;17.226;2024-01-07T00:14:24;101411.96;;;-2.53;100.00
44872;BME280;30602;51.060;17.226;2024-01-07T00:18:07;101416.28;;;-2.53;100.00
44872;BME280;30602;51.060;17.226;2024-01-07T00:21:47;101420.16;;;-2.67;100.00
44872;BME280;30602;51.060;17.226;2024-01-07T00:25:30;101416.74;;;-2.68;100.00
44872;BME280;30602;51.060;17.226;2024-01-07T00:29:07;101417.23;;;-2.63;100.00
44872;BME280;30602;51.060;17.226;2024-01-07T00:32:52;101416.16;;;-2.62;100.00
44872;BME280;30602;51.060;17.226;2024-01-07T00:36:37;101418.44;;;-2.74;100.00
44872;BME280;30602;51.060;17.226;2024-01-07T00:40:31;101414.74;;;-2.77;100.00
44872;BME280;30602;51.060;17.226;2024-01-07T00:44:38;101418.03;;;-2.78;100.00
44872;BME280;30602;51.060;17.226;2024-01-07T00:52:56;101422.36;;;-2.90;100.00
44872;BME280;30602;51.060;17.226;2024-01-07T00:56:40;101420.16;;;-2.94;100.00
44872;BME280;30602;51.060;17.226;2024-01-07T01:00:14;101422.34;;;-2.98;100.00
44872;BME280;30602;51.060;17.226;2024-01-07T01:04:42;101426.40;;;-2.99;100.00
44872;BME280;30602;51.060;17.226;2024-01-07T01:08:34;101429.28;;;-2.85;100.00
44872;BME280;30602;51.060;17.226;2024-01-07T01:12:08;101430.80;;;-3.01;100.00
44872;BME280;30602;51.060;17.226;2024-01-07T01:15:53;101442.23;;;-2.96;100.00
44872;BME280;30602;51.060;17.226;2024-01-07T01:19:18;101441.90;;;-3.02;100.00
44872;BME280;30602;51.060;17.226;2024-01-07T01:22:42;101447.97;;;-2.86;100.00
44872;BME280;30602;51.060;17.226;2024-01-07T01:26:58;101453.76;;;-3.03;100.00
44872;BME280;30602;51.060;17.226;2024-01-07T01:31:06;101454.49;;;-3.02;100.00
44872;BME280;30602;51.060;17.226;2024-01-07T01:34:31;101444.37;;;-3.08;100.00
44872;BME280;30602;51.060;17.226;2024-01-07T01:38:12;101448.96;;;-3.00;100.00
44872;BME280;30602;51.060;17.226;2024-01-07T01:41:53;101448.40;;;-2.99;100.00
44872;BME280;30602;51.060;17.226;2024-01-07T01:45:42;101453.27;;;-3.18;100.00
44872;BME280;30602;51.060;17.226;2024-01-07T01:49:05;101453.36;;;-3.09;100.00
44872;BME280;30602;51.060;17.226;2024-01-07T01:53:21;101463.74;;;-3.14;100.00
44872;BME280;30602;51.060;17.226;2024-01-07T01:56:43;101467.98;;;-3.05;100.00
44872;BME280;30602;51.060;17.226;2024-01-07T02:00:44;101467.30;;;-3.06;100.00
44872;BME280;30602;51.060;17.226;2024-01-07T02:04:21;101465.97;;;-3.27;100.00
44872;BME280;30602;51.060;17.226;2024-01-07T02:08:07;101464.16;;;-3.27;100.00
44872;BME280;30602;51.060;17.226;2024-01-07T02:11:30;101458.78;;;-3.28;100.00
44872;BME280;30602;51.060;17.226;2024-01-07T02:15:38;101458.55;;;-3.21;100.00
44872;BME280;30602;51.060;17.226;2024-01-07T02:23:31;101459.70;;;-3.38;100.00
44872;BME280;30602;51.060;17.226;2024-01-07T02:27:21;101465.02;;;-3.36;100.00
44872;BME280;30602;51.060;17.226;2024-01-07T02:30:43;101462.40;;;-3.34;100.00
44872;BME280;30602;51.060;17.226;2024-01-07T02:34:06;101465.44;;;-3.38;100.00
44872;BME280;30602;51.060;17.226;2024-01-07T02:37:58;101467.05;;;-3.43;100.00
44872;BME280;30602;51.060;17.226;2024-01-07T02:41:45;101466.94;;;-3.30;100.00
44872;BME280;30602;51.060;17.226;2024-01-07T02:45:27;101460.25;;;-3.38;100.00
44872;BME280;30602;51.060;17.226;2024-01-07T02:49:10;101465.08;;;-3.08;100.00
44872;BME280;30602;51.060;17.226;2024-01-07T02:53:12;101464.38;;;-3.25;100.00
44872;BME280;30602;51.060;17.226;2024-01-07T02:56:56;101468.28;;;-3.14;100.00
44872;BME280;30602;51.060;17.226;2024-01-07T03:01:09;101467.87;;;-3.23;100.00
44872;BME280;30602;51.060;17.226;2024-01-07T03:04:54;101473.56;;;-3.29;100.00
44872;BME280;30602;51.060;17.226;2024-01-07T03:08:38;101478.19;;;-3.38;100.00
44872;BME280;30602;51.060;17.226;2024-01-07T03:12:35;101487.61;;;-3.49;100.00
44872;BME280;30602;51.060;17.226;2024-01-07T03:16:26;101491.64;;;-3.58;100.00
44872;BME280;30602;51.060;17.226;2024-01-07T03:20:20;101485.23;;;-3.55;100.00
44872;BME280;30602;51.060;17.226;2024-01-07T03:24:15;101489.73;;;-3.62;100.00
44872;BME280;30602;51.060;17.226;2024-01-07T03:28:07;101492.16;;;-3.69;100.00
44872;BME280;30602;51.060;17.226;2024-01-07T03:31:49;101497.19;;;-3.60;100.00
44872;BME280;30602;51.060;17.226;2024-01-07T03:35:51;101498.34;;;-3.56;100.00
44872;BME280;30602;51.060;17.226;2024-01-07T03:39:42;101502.70;;;-3.59;100.00
44872;BME280;30602;51.060;17.226;2024-01-07T03:43:24;101500.52;;;-3.74;100.00
44872;BME280;30602;51.060;17.226;2024-01-07T03:47:28;101503.05;;;-3.69;100.00
44872;BME280;30602;51.060;17.226;2024-01-07T03:51:29;101504.52;;;-3.62;100.00
44872;BME280;30602;51.060;17.226;2024-01-07T03:55:05;101506.80;;;-3.66;100.00
44872;BME280;30602;51.060;17.226;2024-01-07T03:58:40;101510.33;;;-3.65;100.00
44872;BME280;30602;51.060;17.226;2024-01-07T04:02:26;101517.36;;;-3.76;100.00
44872;BME280;30602;51.060;17.226;2024-01-07T04:06:22;101524.23;;;-3.62;100.00
44872;BME280;30602;51.060;17.226;2024-01-07T04:10:43;101511.69;;;-3.78;100.00
44872;BME280;30602;51.060;17.226;2024-01-07T04:14:05;101525.21;;;-3.59;100.00
44872;BME280;30602;51.060;17.226;2024-01-07T04:18:11;101521.99;;;-3.72;100.00
44872;BME280;30602;51.060;17.226;2024-01-07T04:21:33;101526.93;;;-3.76;100.00
44872;BME280;30602;51.060;17.226;2024-01-07T04:25:09;101529.27;;;-3.81;100.00
44872;BME280;30602;51.060;17.226;2024-01-07T04:29:08;101534.65;;;-3.82;100.00
44872;BME280;30602;51.060;17.226;2024-01-07T04:33:09;101544.02;;;-3.79;100.00
44872;BME280;30602;51.060;17.226;2024-01-07T04:36:33;101543.66;;;-3.85;100.00
44872;BME280;30602;51.060;17.226;2024-01-07T04:40:57;101549.91;;;-3.88;100.00
44872;BME280;30602;51.060;17.226;2024-01-07T04:44:52;101554.21;;;-3.82;100.00
44872;BME280;30602;51.060;17.226;2024-01-07T04:48:20;101557.73;;;-3.95;100.00
44872;BME280;30602;51.060;17.226;2024-01-07T04:52:42;101554.67;;;-4.00;100.00
44872;BME280;30602;51.060;17.226;2024-01-07T04:56:26;101562.66;;;-3.96;100.00
44872;BME280;30602;51.060;17.226;2024-01-07T04:59:59;101570.04;;;-4.00;100.00
44872;BME280;30602;51.060;17.226;2024-01-07T05:03:21;101573.82;;;-3.99;100.00
44872;BME280;30602;51.060;17.226;2024-01-07T05:06:57;101570.74;;;-3.96;100.00
44872;BME280;30602;51.060;17.226;2024-01-07T05:10:51;101572.16;;;-3.95;100.00
44872;BME280;30602;51.060;17.226;2024-01-07T05:14:15;101576.12;;;-3.95;100.00
44872;BME280;30602;51.060;17.226;2024-01-07T05:17:37;101576.98;;;-3.92;100.00
44872;BME280;30602;51.060;17.226;2024-01-07T05:21:19;101580.42;;;-3.86;100.00
44872;BME280;30602;51.060;17.226;2024-01-07T05:24:44;101592.27;;;-3.78;100.00
44872;BME280;30602;51.060;17.226;2024-01-07T05:28:10;101592.95;;;-3.81;100.00
44872;BME280;30602;51.060;17.226;2024-01-07T05:31:58;101604.40;;;-3.91;99.19
44872;BME280;30602;51.060;17.226;2024-01-07T05:35:22;101601.95;;;-3.85;99.74
44872;BME280;30602;51.060;17.226;2024-01-07T05:38:59;101601.49;;;-3.84;98.99
44872;BME280;30602;51.060;17.226;2024-01-07T05:42:22;101600.02;;;-3.80;98.82
44872;BME280;30602;51.060;17.226;2024-01-07T05:46:06;101608.28;;;-3.80;98.62
44872;BME280;30602;51.060;17.226;2024-01-07T05:50:16;101606.90;;;-3.90;97.16
44872;BME280;30602;51.060;17.226;2024-01-07T05:53:44;101605.25;;;-3.84;97.65
44872;BME280;30602;51.060;17.226;2024-01-07T05:57:38;101608.91;;;-3.94;96.48
44872;BME280;30602;51.060;17.226;2024-01-07T06:01:33;101613.08;;;-3.91;96.15
44872;BME280;30602;51.060;17.226;2024-01-07T06:05:43;101608.54;;;-3.89;97.07
44872;BME280;30602;51.060;17.226;2024-01-07T06:09:24;101619.18;;;-3.91;96.36
44872;BME280;30602;51.060;17.226;2024-01-07T06:13:35;101625.74;;;-3.97;96.63
44872;BME280;30602;51.060;17.226;2024-01-07T06:17:18;101630.11;;;-3.92;96.48
44872;BME280;30602;51.060;17.226;2024-01-07T06:20:52;101595.72;;;-4.19;95.63
44872;BME280;30602;51.060;17.226;2024-01-07T06:24:48;101628.70;;;-4.04;94.93
44872;BME280;30602;51.060;17.226;2024-01-07T06:28:15;101631.83;;;-4.00;95.16
44872;BME280;30602;51.060;17.226;2024-01-07T06:35:46;101639.93;;;-4.02;94.92
44872;BME280;30602;51.060;17.226;2024-01-07T06:39:21;101649.52;;;-4.12;94.78
44872;BME280;30602;51.060;17.226;2024-01-07T06:43:14;101660.24;;;-4.08;94.53
44872;BME280;30602;51.060;17.226;2024-01-07T06:46:59;101665.29;;;-4.09;93.98
44872;BME280;30602;51.060;17.226;2024-01-07T06:50:59;101667.55;;;-4.16;94.23
44872;BME280;30602;51.060;17.226;2024-01-07T06:54:57;101674.73;;;-4.14;94.13
44872;BME280;30602;51.060;17.226;2024-01-07T06:58:24;101679.92;;;-4.09;94.17
44872;BME280;30602;51.060;17.226;2024-01-07T07:02:30;101684.34;;;-4.12;93.12
44872;BME280;30602;51.060;17.226;2024-01-07T07:06:18;101690.88;;;-3.92;93.25
44872;BME280;30602;51.060;17.226;2024-01-07T07:10:13;101696.96;;;-4.00;92.38
44872;BME280;30602;51.060;17.226;2024-01-07T07:14:21;101696.77;;;-4.14;91.42
44872;BME280;30602;51.060;17.226;2024-01-07T07:18:39;101705.13;;;-4.06;92.08
44872;BME280;30602;51.060;17.226;2024-01-07T07:22:33;101710.25;;;-4.07;91.45
44872;BME280;30602;51.060;17.226;2024-01-07T07:26:30;101718.23;;;-4.21;90.05
44872;BME280;30602;51.060;17.226;2024-01-07T07:30:59;101714.23;;;-4.23;89.29
44872;BME280;30602;51.060;17.226;2024-01-07T07:34:35;101683.78;;;-4.39;89.88
44872;BME280;30602;51.060;17.226;2024-01-07T07:37:56;101715.38;;;-4.32;89.64
44872;BME280;30602;51.060;17.226;2024-01-07T07:41:23;101711.87;;;-4.25;90.87
44872;BME280;30602;51.060;17.226;2024-01-07T07:45:09;101720.63;;;-4.28;90.98
44872;BME280;30602;51.060;17.226;2024-01-07T07:48:52;101722.71;;;-4.30;89.46
44872;BME280;30602;51.060;17.226;2024-01-07T07:56:53;101734.34;;;-4.48;88.43
44872;BME280;30602;51.060;17.226;2024-01-07T08:00:14;101744.34;;;-4.35;88.00
44872;BME280;30602;51.060;17.226;2024-01-07T08:04:39;101748.26;;;-4.33;88.78
44872;BME280;30602;51.060;17.226;2024-01-07T08:08:24;101741.01;;;-4.44;88.43
44872;BME280;30602;51.060;17.226;2024-01-07T08:12:08;101761.84;;;-4.36;88.15
44872;BME280;30602;51.060;17.226;2024-01-07T08:15:33;101763.55;;;-4.38;87.93
44872;BME280;30602;51.060;17.226;2024-01-07T08:23:42;101767.95;;;-4.39;87.46
44872;BME280;30602;51.060;17.226;2024-01-07T08:27:09;101769.28;;;-4.32;88.07
44872;BME280;30602;51.060;17.226;2024-01-07T08:31:35;101774.85;;;-4.22;86.83
44872;BME280;30602;51.060;17.226;2024-01-07T08:35:10;101774.47;;;-4.17;87.91
44872;BME280;30602;51.060;17.226;2024-01-07T08:40:00;101771.41;;;-4.24;87.46
44872;BME280;30602;51.060;17.226;2024-01-07T08:43:56;101776.45;;;-4.05;87.65
44872;BME280;30602;51.060;17.226;2024-01-07T08:47:20;101783.57;;;-4.12;87.34
44872;BME280;30602;51.060;17.226;2024-01-07T08:50:55;101784.85;;;-4.16;86.48
44872;BME280;30602;51.060;17.226;2024-01-07T08:54:18;101783.12;;;-4.30;86.04
44872;BME280;30602;51.060;17.226;2024-01-07T08:58:07;101785.71;;;-4.14;87.73
44872;BME280;30602;51.060;17.226;2024-01-07T09:01:32;101785.67;;;-4.22;86.47
44872;BME280;30602;51.060;17.226;2024-01-07T09:04:59;101785.78;;;-4.34;86.29
44872;BME280;30602;51.060;17.226;2024-01-07T09:12:30;101802.30;;;-4.19;86.21
44872;BME280;30602;51.060;17.226;2024-01-07T09:24:05;101810.06;;;-4.13;86.87
44872;BME280;30602;51.060;17.226;2024-01-07T09:27:44;101808.52;;;-4.19;86.24
44872;BME280;30602;51.060;17.226;2024-01-07T09:31:48;101809.90;;;-4.16;86.39
44872;BME280;30602;51.060;17.226;2024-01-07T09:39:39;101806.52;;;-4.23;86.01
44872;BME280;30602;51.060;17.226;2024-01-07T09:43:26;101792.99;;;-4.23;86.93
44872;BME280;30602;51.060;17.226;2024-01-07T09:46:54;101804.46;;;-4.08;86.78
44872;BME280;30602;51.060;17.226;2024-01-07T09:50:42;101809.63;;;-4.15;87.37
44872;BME280;30602;51.060;17.226;2024-01-07T10:06:36;101552.92;;;20.78;14.97
44872;BME280;30602;51.060;17.226;2024-01-07T10:10:17;101657.12;;;4.26;33.96
44872;BME280;30602;51.060;17.226;2024-01-07T10:13:45;101697.68;;;-0.32;48.77
44872;BME280;30602;51.060;17.226;2024-01-07T10:18:14;101705.37;;;-2.13;57.69
44872;BME280;30602;51.060;17.226;2024-01-07T10:21:38;101709.05;;;-3.10;63.20
44872;BME280;30602;51.060;17.226;2024-01-07T10:26:27;101708.70;;;-3.43;65.89
44872;BME280;30602;51.060;17.226;2024-01-07T10:29:47;101710.77;;;-3.52;68.76
44872;BME280;30602;51.060;17.226;2024-01-07T10:33:41;101713.88;;;-3.76;70.22
44872;BME280;30602;51.060;17.226;2024-01-07T10:37:46;101716.73;;;-3.78;70.43
44872;BME280;30602;51.060;17.226;2024-01-07T10:41:12;101718.21;;;-3.97;71.64
44872;BME280;30602;51.060;17.226;2024-01-07T10:44:55;101719.40;;;-3.85;73.98
44872;BME280;30602;51.060;17.226;2024-01-07T10:48:37;101722.87;;;-4.02;72.87
44872;BME280;30602;51.060;17.226;2024-01-07T10:52:21;101724.38;;;-4.09;73.67
44872;BME280;30602;51.060;17.226;2024-01-07T10:56:30;101719.82;;;-4.20;73.84
44872;BME280;30602;51.060;17.226;2024-01-07T10:59:51;101728.45;;;-4.13;74.41
44872;BME280;30602;51.060;17.226;2024-01-07T11:04:17;101726.30;;;-4.15;74.54
44872;BME280;30602;51.060;17.226;2024-01-07T11:11:41;101679.91;;;3.53;46.07
44872;BME280;30602;51.060;17.226;2024-01-07T11:15:53;101709.48;;;-1.96;56.89
44872;BME280;30602;51.060;17.226;2024-01-07T11:23:45;101725.98;;;-3.66;67.24
44872;BME280;30602;51.060;17.226;2024-01-07T11:27:11;101728.21;;;-3.83;69.43
44872;BME280;30602;51.060;17.226;2024-01-07T11:30:38;101728.95;;;-3.98;69.25
44872;BME280;30602;51.060;17.226;2024-01-07T11:34:40;101726.64;;;-4.07;71.15
44872;BME280;30602;51.060;17.226;2024-01-07T11:38:10;101728.77;;;-4.07;71.42
44872;BME280;30602;51.060;17.226;2024-01-07T11:41:40;101736.59;;;-4.10;71.90
44872;BME280;30602;51.060;17.226;2024-01-07T11:45:24;101744.81;;;-4.28;70.96
44872;BME280;30602;51.060;17.226;2024-01-07T11:49:36;101738.99;;;-4.42;71.80
44872;BME280;30602;51.060;17.226;2024-01-07T11:53:22;101733.20;;;-4.39;73.46
44872;BME280;30602;51.060;17.226;2024-01-07T11:57:19;101738.34;;;-4.38;73.47
44872;BME280;30602;51.060;17.226;2024-01-07T12:01:34;101725.50;;;-4.33;72.99
44872;BME280;30602;51.060;17.226;2024-01-07T12:05:30;101727.32;;;-4.39;71.96
44872;BME280;30602;51.060;17.226;2024-01-07T12:09:37;101730.24;;;-4.40;72.28
44872;BME280;30602;51.060;17.226;2024-01-07T12:13:19;101726.78;;;-4.52;72.35
44872;BME280;30602;51.060;17.226;2024-01-07T12:16:59;101737.66;;;-4.61;73.00
44872;BME280;30602;51.060;17.226;2024-01-07T12:20:59;101738.03;;;-4.55;74.03
44872;BME280;30602;51.060;17.226;2024-01-07T12:24:42;101740.98;;;-4.49;74.24
44872;BME280;30602;51.060;17.226;2024-01-07T12:28:20;101745.67;;;-4.52;74.31
44872;BME280;30602;51.060;17.226;2024-01-07T12:32:54;101746.80;;;-4.52;74.03
44872;BME280;30602;51.060;17.226;2024-01-07T12:36:42;101751.33;;;-4.53;74.07
44872;BME280;30602;51.060;17.226;2024-01-07T12:40:39;101758.61;;;-4.45;74.91
44872;BME280;30602;51.060;17.226;2024-01-07T12:44:32;101762.86;;;-4.50;74.25
44872;BME280;30602;51.060;17.226;2024-01-07T12:48:50;101766.33;;;-4.59;73.76
44872;BME280;30602;51.060;17.226;2024-01-07T12:52:12;101769.99;;;-4.52;74.39
44872;BME280;30602;51.060;17.226;2024-01-07T12:55:55;101779.37;;;-4.57;74.45
44872;BME280;30602;51.060;17.226;2024-01-07T13:00:33;101789.11;;;-4.68;74.28
44872;BME280;30602;51.060;17.226;2024-01-07T13:03:59;101788.10;;;-4.70;74.56
44872;BME280;30602;51.060;17.226;2024-01-07T13:08:03;101788.57;;;-4.76;75.41
44872;BME280;30602;51.060;17.226;2024-01-07T13:11:31;101789.91;;;-4.66;76.11
44872;BME280;30602;51.060;17.226;2024-01-07T13:15:00;101784.05;;;-4.83;74.71
44872;BME280;30602;51.060;17.226;2024-01-07T13:18:41;101805.94;;;-4.81;74.45
44872;BME280;30602;51.060;17.226;2024-01-07T13:23:11;101812.53;;;-4.85;75.01
44872;BME280;30602;51.060;17.226;2024-01-07T13:26:39;101807.30;;;-4.96;74.75
44872;BME280;30602;51.060;17.226;2024-01-07T13:30:18;101809.70;;;-4.94;76.01
44872;BME280;30602;51.060;17.226;2024-01-07T13:34:39;101822.80;;;-4.90;76.29
44872;BME280;30602;51.060;17.226;2024-01-07T13:38:00;101820.86;;;-4.97;74.18
44872;BME280;30602;51.060;17.226;2024-01-07T13:42:18;101825.92;;;-5.12;74.20
44872;BME280;30602;51.060;17.226;2024-01-07T13:46:28;101829.77;;;-5.20;74.69
44872;BME280;30602;51.060;17.226;2024-01-07T13:50:22;101836.44;;;-5.21;75.10
44872;BME280;30602;51.060;17.226;2024-01-07T13:53:45;101843.45;;;-5.30;74.55
44872;BME280;30602;51.060;17.226;2024-01-07T13:57:52;101852.33;;;-5.36;74.94
44872;BME280;30602;51.060;17.226;2024-01-07T14:01:23;101847.25;;;-5.34;75.29
44872;BME280;30602;51.060;17.226;2024-01-07T14:05:06;101852.63;;;-5.38;75.13
44872;BME280;30602;51.060;17.226;2024-01-07T14:08:53;101843.15;;;-5.45;75.44
44872;BME280;30602;51.060;17.226;2024-01-07T14:17:15;101858.88;;;-5.45;75.06
44872;BME280;30602;51.060;17.226;2024-01-07T14:26:36;101863.07;;;-5.53;76.04
44872;BME280;30602;51.060;17.226;2024-01-07T14:30:33;101870.20;;;-5.54;75.92
44872;BME280;30602;51.060;17.226;2024-01-07T14:35:02;101876.96;;;-5.53;76.58
44872;BME280;30602;51.060;17.226;2024-01-07T14:38:57;101879.27;;;-5.62;75.72
44872;BME280;30602;51.060;17.226;2024-01-07T14:42:44;101880.16;;;-5.74;75.54
44872;BME280;30602;51.060;17.226;2024-01-07T14:46:41;101871.12;;;-5.91;76.38
44872;BME280;30602;51.060;17.226;2024-01-07T14:50:25;101893.12;;;-5.76;77.38
44872;BME280;30602;51.060;17.226;2024-01-07T14:54:04;101895.27;;;-5.83;76.91
44872;BME280;30602;51.060;17.226;2024-01-07T14:57:40;101893.20;;;-5.86;77.14
44872;BME280;30602;51.060;17.226;2024-01-07T15:01:37;101890.01;;;-5.87;77.70
44872;BME280;30602;51.060;17.226;2024-01-07T15:05:27;101898.34;;;-5.89;77.46
44872;BME280;30602;51.060;17.226;2024-01-07T15:10:06;101904.64;;;-5.96;78.48
44872;BME280;30602;51.060;17.226;2024-01-07T15:13:37;101912.20;;;-5.98;77.92
44872;BME280;30602;51.060;17.226;2024-01-07T15:17:14;101916.85;;;-6.07;78.21
44872;BME280;30602;51.060;17.226;2024-01-07T15:20:38;101920.99;;;-6.21;78.52
44872;BME280;30602;51.060;17.226;2024-01-07T15:24:05;101925.46;;;-6.23;79.09
44872;BME280;30602;51.060;17.226;2024-01-07T15:28:20;101929.57;;;-6.17;79.41
44872;BME280;30602;51.060;17.226;2024-01-07T15:32:32;101925.89;;;-6.23;79.27
44872;BME280;30602;51.060;17.226;2024-01-07T15:36:17;101940.27;;;-6.20;78.66
44872;BME280;30602;51.060;17.226;2024-01-07T15:39:43;101939.80;;;-6.19;79.89
44872;BME280;30602;51.060;17.226;2024-01-07T15:44:10;101940.09;;;-6.12;79.73
44872;BME280;30602;51.060;17.226;2024-01-07T15:47:56;101938.70;;;-6.16;79.58
44872;BME280;30602;51.060;17.226;2024-01-07T15:51:38;101945.32;;;-6.21;79.39
44872;BME280;30602;51.060;17.226;2024-01-07T15:55:35;101948.67;;;-6.18;79.59
44872;BME280;30602;51.060;17.226;2024-01-07T15:59:47;101960.26;;;-6.24;79.28
44872;BME280;30602;51.060;17.226;2024-01-07T16:03:33;101965.97;;;-6.31;79.36
44872;BME280;30602;51.060;17.226;2024-01-07T16:07:08;101958.70;;;-6.47;79.59
44872;BME280;30602;51.060;17.226;2024-01-07T16:10:54;101976.77;;;-6.41;79.88
44872;BME280;30602;51.060;17.226;2024-01-07T16:14:22;101981.57;;;-6.39;80.74
44872;BME280;30602;51.060;17.226;2024-01-07T16:18:01;101982.08;;;-6.36;80.33
44872;BME280;30602;51.060;17.226;2024-01-07T16:21:24;101984.52;;;-6.39;79.60
44872;BME280;30602;51.060;17.226;2024-01-07T16:25:26;101994.76;;;-6.37;80.52
44872;BME280;30602;51.060;17.226;2024-01-07T16:28:52;101995.26;;;-6.43;80.04
44872;BME280;30602;51.060;17.226;2024-01-07T16:32:16;101999.34;;;-6.44;80.20
44872;BME280;30602;51.060;17.226;2024-01-07T16:36:20;102003.12;;;-6.43;80.24
44872;BME280;30602;51.060;17.226;2024-01-07T16:40:04;101986.00;;;-6.55;80.55
44872;BME280;30602;51.060;17.226;2024-01-07T16:44:23;102005.30;;;-6.38;81.39
44872;BME280;30602;51.060;17.226;2024-01-07T16:47:49;102010.95;;;-6.33;80.98
44872;BME280;30602;51.060;17.226;2024-01-07T16:51:38;102010.51;;;-6.37;80.88
44872;BME280;30602;51.060;17.226;2024-01-07T16:55:35;102021.66;;;-6.35;80.85
44872;BME280;30602;51.060;17.226;2024-01-07T16:59:00;102026.07;;;-6.37;80.73
44872;BME280;30602;51.060;17.226;2024-01-07T17:02:23;102027.30;;;-6.39;80.36
44872;BME280;30602;51.060;17.226;2024-01-07T17:05:52;102027.94;;;-6.47;80.12
44872;BME280;30602;51.060;17.226;2024-01-07T17:33:20;102049.84;;;-6.30;80.35
44872;BME280;30602;51.060;17.226;2024-01-07T17:36:42;102072.28;;;-6.41;80.20
44872;BME280;30602;51.060;17.226;2024-01-07T17:40:03;102062.02;;;-6.63;80.16
44872;BME280;30602;51.060;17.226;2024-01-07T17:43:25;102079.66;;;-6.54;81.21
44872;BME280;30602;51.060;17.226;2024-01-07T17:47:26;102080.76;;;-6.51;81.35
44872;BME280;30602;51.060;17.226;2024-01-07T17:51:01;102081.90;;;-6.51;80.86
44872;BME280;30602;51.060;17.226;2024-01-07T17:54:38;102090.91;;;-6.59;81.09
44872;BME280;30602;51.060;17.226;2024-01-07T17:58:47;102098.39;;;-6.61;81.02
44872;BME280;30602;51.060;17.226;2024-01-07T18:03:13;102107.96;;;-6.63;81.49
44872;BME280;30602;51.060;17.226;2024-01-07T18:07:00;102107.53;;;-6.68;81.55
44872;BME280;30602;51.060;17.226;2024-01-07T18:10:59;102125.00;;;-6.62;81.73
44872;BME280;30602;51.060;17.226;2024-01-07T18:15:13;102124.79;;;-6.67;81.34
44872;BME280;30602;51.060;17.226;2024-01-07T18:19:39;102131.37;;;-6.69;81.67
44872;BME280;30602;51.060;17.226;2024-01-07T18:23:20;102141.21;;;-6.71;81.42
44872;BME280;30602;51.060;17.226;2024-01-07T18:27:11;102148.23;;;-6.72;81.62
44872;BME280;30602;51.060;17.226;2024-01-07T18:30:55;102149.83;;;-6.75;81.39
44872;BME280;30602;51.060;17.226;2024-01-07T18:34:29;102154.40;;;-6.77;81.48
44872;BME280;30602;51.060;17.226;2024-01-07T18:38:17;102156.85;;;-6.75;80.92
44872;BME280;30602;51.060;17.226;2024-01-07T18:41:59;102156.02;;;-6.77;81.10
44872;BME280;30602;51.060;17.226;2024-01-07T18:45:48;102158.43;;;-6.73;81.55
44872;BME280;30602;51.060;17.226;2024-01-07T18:49:21;102162.78;;;-6.71;81.12
44872;BME280;30602;51.060;17.226;2024-01-07T18:53:01;102162.67;;;-6.71;81.42
44872;BME280;30602;51.060;17.226;2024-01-07T18:56:52;102133.96;;;-6.88;81.02
44872;BME280;30602;51.060;17.226;2024-01-07T19:00:39;102167.48;;;-6.71;81.22
44872;BME280;30602;51.060;17.226;2024-01-07T19:04:01;102165.48;;;-6.72;81.38
44872;BME280;30602;51.060;17.226;2024-01-07T19:08:42;102165.80;;;-6.75;81.60
44872;BME280;30602;51.060;17.226;2024-01-07T19:12:24;102164.00;;;-6.78;81.30
44872;BME280;30602;51.060;17.226;2024-01-07T19:16:30;102162.20;;;-6.78;81.40
44872;BME280;30602;51.060;17.226;2024-01-07T19:19:58;102166.85;;;-6.74;81.18
44872;BME280;30602;51.060;17.226;2024-01-07T19:23:55;102169.30;;;-6.78;81.26
44872;BME280;30602;51.060;17.226;2024-01-07T19:27:17;102171.20;;;-6.73;81.56
44872;BME280;30602;51.060;17.226;2024-01-07T19:30:47;102176.11;;;-6.83;80.62
44872;BME280;30602;51.060;17.226;2024-01-07T19:34:48;102181.05;;;-6.83;81.13
44872;BME280;30602;51.060;17.226;2024-01-07T19:38:47;102182.63;;;-6.88;80.65
44872;BME280;30602;51.060;17.226;2024-01-07T19:42:21;102184.02;;;-6.90;80.88
44872;BME280;30602;51.060;17.226;2024-01-07T19:45:47;102179.44;;;-6.91;81.15
44872;BME280;30602;51.060;17.226;2024-01-07T19:49:44;102182.70;;;-6.86;81.50
44872;BME280;30602;51.060;17.226;2024-01-07T19:54:13;102181.16;;;-6.90;81.28
44872;BME280;30602;51.060;17.226;2024-01-07T19:58:07;102173.58;;;-6.95;80.85
44872;BME280;30602;51.060;17.226;2024-01-07T20:01:56;102189.63;;;-6.80;81.63
44872;BME280;30602;51.060;17.226;2024-01-07T20:05:38;102192.18;;;-6.77;81.07
44872;BME280;30602;51.060;17.226;2024-01-07T20:17:58;102204.57;;;-6.82;81.03
44872;BME280;30602;51.060;17.226;2024-01-07T20:21:23;102203.19;;;-6.84;80.98
44872;BME280;30602;51.060;17.226;2024-01-07T20:25:18;102202.42;;;-6.86;81.39
44872;BME280;30602;51.060;17.226;2024-01-07T20:29:11;102199.98;;;-6.88;81.16
44872;BME280;30602;51.060;17.226;2024-01-07T20:33:17;102213.33;;;-6.86;81.45
44872;BME280;30602;51.060;17.226;2024-01-07T20:36:48;102215.30;;;-6.89;81.43
44872;BME280;30602;51.060;17.226;2024-01-07T20:40:31;102223.22;;;-6.93;81.37
44872;BME280;30602;51.060;17.226;2024-01-07T20:44:00;102228.47;;;-6.98;81.26
44872;BME280;30602;51.060;17.226;2024-01-07T20:48:06;102224.66;;;-6.91;81.68
44872;BME280;30602;51.060;17.226;2024-01-07T20:51:52;102229.77;;;-6.90;81.94
44872;BME280;30602;51.060;17.226;2024-01-07T20:55:17;102236.35;;;-6.91;81.42
44872;BME280;30602;51.060;17.226;2024-01-07T20:59:07;102237.64;;;-6.88;82.03
44872;BME280;30602;51.060;17.226;2024-01-07T21:02:40;102243.58;;;-6.82;82.33
44872;BME280;30602;51.060;17.226;2024-01-07T21:06:18;102247.05;;;-6.82;82.16